createdAt,value
2019-03-12T00:02:30.470Z,97.70
2019-03-12T00:05:02.454Z,97.80
2019-03-12T00:07:35.700Z,97.90
2019-03-12T00:10:08.007Z,98.00
2019-03-12T00:12:40.056Z,98.00
2019-03-12T00:15:12.654Z,97.90
2019-03-12T00:17:45.215Z,97.80
2019-03-12T00:20:18.486Z,98.00
2019-03-12T00:22:50.651Z,97.90
2019-03-12T00:25:22.704Z,98.00
2019-03-12T00:28:05.161Z,98.20
2019-03-12T00:30:34.902Z,98.30
2019-03-12T00:33:07.010Z,98.40
2019-03-12T00:35:39.212Z,98.50
2019-03-12T00:38:11.454Z,98.50
2019-03-12T00:40:43.515Z,98.60
2019-03-12T00:43:15.790Z,98.70
2019-03-12T00:45:47.905Z,98.50
2019-03-12T00:48:23.564Z,98.50
2019-03-12T00:50:55.633Z,98.60
2019-03-12T00:53:27.655Z,98.60
2019-03-12T00:55:59.632Z,98.60
2019-03-12T00:58:31.696Z,98.70
2019-03-12T01:01:03.679Z,98.60
2019-03-12T01:03:35.713Z,98.50
2019-03-12T01:06:07.738Z,98.60
2019-03-12T01:08:39.831Z,98.60
2019-03-12T01:11:11.921Z,98.50
2019-03-12T01:13:44.101Z,98.70
2019-03-12T01:16:16.126Z,98.60
2019-03-12T01:18:48.086Z,98.70
2019-03-12T01:21:20.235Z,98.70
2019-03-12T01:23:52.516Z,99.00
2019-03-12T01:26:24.536Z,99.00
2019-03-12T01:28:56.664Z,98.90
2019-03-12T01:31:29.715Z,98.90
2019-03-12T01:34:01.750Z,99.00
2019-03-12T01:36:35.445Z,99.00
2019-03-12T01:39:08.815Z,99.00
2019-03-12T01:41:40.824Z,99.00
2019-03-12T01:44:14.331Z,99.00
2019-03-12T01:46:46.387Z,98.90
2019-03-12T01:49:18.405Z,98.90
2019-03-12T01:51:50.507Z,98.80
2019-03-12T01:54:23.492Z,98.90
2019-03-12T01:56:55.448Z,98.80
2019-03-12T01:59:27.531Z,98.80
2019-03-12T02:01:59.501Z,98.60
2019-03-12T02:04:31.481Z,98.50
2019-03-12T02:07:11.824Z,98.50
2019-03-12T02:09:43.507Z,98.60
2019-03-12T02:12:15.551Z,98.60
2019-03-12T02:14:47.575Z,98.50
2019-03-12T02:17:19.601Z,98.40
2019-03-12T02:19:51.815Z,98.40
2019-03-12T02:22:23.845Z,98.40
2019-03-12T02:24:55.820Z,98.20
2019-03-12T02:27:27.791Z,98.20
2019-03-12T02:29:59.712Z,98.20
2019-03-12T02:32:31.747Z,98.20
2019-03-12T02:35:03.801Z,98.20
2019-03-12T02:37:36.925Z,98.30
2019-03-12T02:40:09.432Z,98.30
2019-03-12T02:42:41.473Z,98.10
2019-03-12T02:45:13.653Z,98.20
2019-03-12T02:47:45.915Z,98.10
2019-03-12T02:50:17.986Z,98.10
2019-03-12T02:52:49.925Z,98.10
2019-03-12T02:55:22.295Z,98.00
2019-03-12T02:57:54.306Z,98.10
2019-03-12T03:00:26.495Z,98.40
2019-03-12T03:02:58.539Z,98.30
2019-03-12T03:05:32.821Z,98.40
2019-03-12T03:08:08.798Z,98.50
2019-03-12T03:10:40.944Z,98.60
2019-03-12T03:13:13.287Z,98.60
2019-03-12T03:15:45.858Z,98.60
2019-03-12T03:18:17.821Z,98.60
2019-03-12T03:20:49.824Z,98.70
2019-03-12T03:23:22.070Z,98.70
2019-03-12T03:25:54.257Z,98.80
2019-03-12T03:28:26.243Z,98.60
2019-03-12T03:33:48.646Z,98.90
2019-03-12T03:36:21.006Z,98.80
2019-03-12T03:38:53.001Z,98.80
2019-03-12T03:41:25.137Z,98.90
2019-03-12T03:43:57.244Z,99.20
2019-03-12T03:46:31.261Z,99.20
2019-03-12T03:49:03.443Z,99.30
2019-03-12T03:51:44.398Z,99.60
2019-03-12T03:54:16.531Z,99.60
2019-03-12T03:56:48.711Z,99.50
2019-03-12T03:59:20.754Z,99.60
2019-03-12T04:01:52.753Z,99.70
2019-03-12T04:04:24.655Z,99.60
2019-03-12T04:06:57.533Z,99.50
2019-03-12T04:09:29.543Z,99.50
2019-03-12T04:12:01.744Z,99.50
2019-03-12T04:14:34.808Z,99.70
2019-03-12T04:17:09.610Z,99.90
2019-03-12T04:19:44.647Z,99.90
2019-03-12T04:22:19.719Z,99.90
2019-03-12T04:24:53.527Z,99.90
2019-03-12T04:27:35.824Z,99.90
2019-03-12T04:30:19.815Z,99.90
2019-03-12T04:32:51.833Z,99.90
2019-03-12T04:35:42.749Z,99.90
2019-03-12T04:38:16.664Z,99.90
2019-03-12T04:40:48.966Z,99.90
2019-03-12T04:43:21.211Z,99.90
2019-03-12T04:45:53.360Z,99.90
2019-03-12T04:48:25.510Z,99.90
2019-03-12T04:50:59.982Z,99.90
2019-03-12T04:53:33.047Z,99.90
2019-03-12T04:56:05.215Z,99.90
2019-03-12T04:58:37.384Z,99.90
2019-03-12T05:01:09.335Z,99.90
2019-03-12T05:03:41.424Z,99.90
2019-03-12T05:06:19.607Z,99.90
2019-03-12T05:08:58.342Z,99.90
2019-03-12T05:11:45.724Z,99.90
2019-03-12T05:15:03.512Z,99.90
2019-03-12T05:17:58.859Z,99.90
2019-03-12T05:20:41.246Z,99.90
2019-03-12T05:23:13.865Z,99.90
2019-03-12T05:26:00.029Z,99.90
2019-03-12T05:28:37.181Z,99.90
2019-03-12T05:31:43.175Z,99.90
2019-03-12T05:34:44.953Z,99.90
2019-03-12T05:37:39.139Z,99.90
2019-03-12T05:40:25.056Z,99.90
2019-03-12T05:43:23.777Z,99.90
2019-03-12T05:46:08.328Z,99.90
2019-03-12T05:48:42.144Z,99.90
2019-03-12T05:51:26.661Z,99.90
2019-03-12T05:54:04.652Z,99.90
2019-03-12T06:00:11.602Z,99.90
2019-03-12T06:03:12.424Z,99.90
2019-03-12T06:06:18.605Z,99.90
2019-03-12T06:09:06.712Z,99.90
2019-03-12T06:11:46.885Z,99.90
2019-03-12T06:14:19.349Z,99.90
2019-03-12T06:16:52.156Z,99.90
2019-03-12T06:19:27.428Z,99.90
2019-03-12T06:22:04.096Z,99.90
2019-03-12T06:24:36.290Z,99.90
2019-03-12T06:27:08.395Z,99.50
2019-03-12T06:29:40.530Z,99.30
2019-03-12T06:32:26.380Z,98.80
2019-03-12T06:35:32.544Z,98.90
2019-03-12T06:38:26.408Z,99.00
2019-03-12T06:41:03.071Z,98.70
2019-03-12T06:43:59.919Z,98.10
2019-03-12T06:46:53.563Z,97.80
2019-03-12T06:49:34.449Z,97.70
2019-03-12T06:52:34.766Z,97.40
2019-03-12T06:55:26.045Z,97.30
2019-03-12T06:58:39.936Z,97.60
2019-03-12T07:01:26.835Z,97.50
2019-03-12T07:04:17.813Z,97.70
2019-03-12T07:07:11.205Z,97.90
2019-03-12T07:09:46.966Z,97.80
2019-03-12T07:12:28.060Z,98.10
2019-03-12T07:15:07.801Z,98.20
2019-03-12T07:17:53.792Z,98.20
2019-03-12T07:20:34.585Z,98.20
2019-03-12T07:23:16.446Z,98.50
2019-03-12T07:26:03.880Z,98.50
2019-03-12T07:28:50.270Z,98.60
2019-03-12T07:31:37.880Z,98.60
2019-03-12T07:34:36.903Z,98.50
2019-03-12T07:37:26.373Z,98.30
2019-03-12T07:40:10.795Z,98.50
2019-03-12T07:43:02.218Z,97.50
2019-03-12T07:45:53.355Z,97.50
2019-03-12T07:48:42.744Z,96.90
2019-03-12T07:51:41.153Z,96.30
2019-03-12T07:54:19.799Z,96.10
2019-03-12T07:57:34.968Z,96.40
2019-03-12T08:00:31.146Z,96.70
2019-03-12T08:03:26.278Z,96.00
2019-03-12T08:06:10.924Z,96.30
2019-03-12T08:08:55.238Z,96.20
2019-03-12T08:11:47.023Z,95.60
2019-03-12T08:14:53.160Z,95.40
2019-03-12T08:17:54.508Z,95.20
2019-03-12T08:20:35.118Z,95.10
2019-03-12T08:23:34.819Z,94.50
2019-03-12T08:26:46.818Z,94.70
2019-03-12T08:29:40.132Z,94.10
2019-03-12T08:32:36.698Z,94.00
2019-03-12T08:35:33.423Z,93.90
2019-03-12T08:38:27.384Z,93.70
2019-03-12T08:41:10.464Z,93.10
2019-03-12T08:44:00.535Z,92.80
2019-03-12T08:46:49.891Z,92.80
2019-03-12T08:49:34.901Z,92.60
2019-03-12T08:52:24.325Z,92.30
2019-03-12T08:55:13.856Z,92.10
2019-03-12T08:57:59.217Z,92.00
2019-03-12T09:00:50.383Z,92.20
2019-03-12T09:03:56.204Z,91.80
2019-03-12T09:06:37.911Z,91.60
2019-03-12T09:09:21.653Z,91.20
2019-03-12T09:12:15.311Z,90.80
2019-03-12T09:15:05.692Z,91.20
2019-03-12T09:18:02.940Z,91.00
2019-03-12T09:20:52.372Z,90.30
2019-03-12T09:23:34.831Z,90.70
2019-03-12T09:26:21.332Z,90.00
2019-03-12T09:29:14.518Z,90.00
2019-03-12T09:32:10.254Z,90.30
2019-03-12T09:34:49.548Z,90.30
2019-03-12T09:37:49.335Z,89.80
2019-03-12T09:40:28.325Z,90.40
2019-03-12T09:43:13.052Z,90.20
2019-03-12T09:46:02.798Z,90.30
2019-03-12T09:48:56.694Z,90.00
2019-03-12T09:51:42.249Z,88.90
2019-03-12T09:54:31.913Z,88.80
2019-03-12T09:57:28.569Z,87.80
2019-03-12T10:00:22.273Z,88.20
2019-03-12T10:03:11.931Z,88.40
2019-03-12T10:06:05.937Z,85.90
2019-03-12T10:09:08.740Z,83.50
2019-03-12T10:11:52.378Z,82.20
2019-03-12T10:14:38.784Z,81.70
2019-03-12T10:17:28.114Z,82.20
2019-03-12T10:20:08.689Z,82.50
2019-03-12T10:22:59.721Z,82.60
2019-03-12T10:25:48.986Z,82.30
2019-03-12T10:28:45.934Z,82.00
2019-03-12T10:31:55.016Z,81.70
2019-03-12T10:34:45.818Z,81.40
2019-03-12T10:37:49.101Z,80.90
2019-03-12T10:40:37.861Z,82.40
2019-03-12T10:43:18.294Z,81.10
2019-03-12T10:45:58.086Z,79.20
2019-03-12T10:48:31.063Z,78.90
2019-03-12T10:51:02.967Z,77.90
2019-03-12T10:53:35.059Z,78.20
2019-03-12T10:56:07.075Z,78.40
2019-03-12T10:58:39.192Z,78.60
2019-03-12T11:01:11.286Z,75.40
2019-03-12T11:03:43.224Z,76.20
2019-03-12T11:06:15.231Z,74.00
2019-03-12T11:08:47.310Z,74.60
2019-03-12T11:11:20.514Z,74.80
2019-03-12T11:13:52.491Z,73.40
2019-03-12T11:16:24.484Z,73.80
2019-03-12T11:18:56.628Z,66.70
2019-03-12T11:21:28.738Z,70.10
2019-03-12T11:24:01.207Z,65.40
2019-03-12T11:26:33.116Z,66.60
2019-03-12T11:29:05.127Z,62.30
2019-03-12T11:31:37.157Z,63.70
2019-03-12T11:34:09.163Z,63.10
2019-03-12T11:36:41.334Z,63.70
2019-03-12T11:39:14.474Z,63.30
2019-03-12T11:41:46.750Z,64.60
2019-03-12T11:44:18.845Z,63.10
2019-03-12T11:46:50.785Z,64.80
2019-03-12T11:49:22.813Z,64.50
2019-03-12T11:51:54.842Z,67.40
2019-03-12T11:54:26.769Z,64.80
2019-03-12T11:56:58.811Z,64.30
2019-03-12T11:59:30.704Z,63.80
2019-03-12T12:02:02.763Z,63.20
2019-03-12T12:04:35.064Z,64.50
2019-03-12T12:07:07.045Z,62.80
2019-03-12T12:09:39.319Z,62.10
2019-03-12T12:12:11.822Z,61.80
2019-03-12T12:14:43.833Z,61.70
2019-03-12T12:17:15.838Z,61.50
2019-03-12T12:19:47.843Z,62.50
2019-03-12T12:22:19.986Z,60.70
2019-03-12T12:24:51.954Z,62.20
2019-03-12T12:27:24.023Z,58.80
2019-03-12T12:29:55.846Z,58.90
2019-03-12T12:32:27.886Z,60.30
2019-03-12T12:34:59.960Z,61.30
2019-03-12T12:37:32.474Z,60.10
2019-03-12T12:40:06.703Z,59.00
2019-03-12T12:42:40.705Z,57.40
2019-03-12T12:45:24.590Z,58.10
2019-03-12T12:48:04.781Z,59.10
2019-03-12T12:51:01.948Z,56.90
2019-03-12T12:53:23.579Z,57.20
2019-03-12T12:56:03.785Z,55.00
2019-03-12T12:58:35.805Z,56.70
2019-03-12T13:01:08.065Z,53.20
2019-03-12T13:03:40.295Z,55.00
2019-03-12T13:06:12.263Z,55.90
2019-03-12T13:08:44.483Z,55.50
2019-03-12T13:11:16.400Z,51.50
2019-03-12T13:13:48.432Z,54.00
2019-03-12T13:16:25.402Z,53.80
2019-03-12T13:18:54.452Z,50.40
2019-03-12T13:21:26.396Z,52.00
2019-03-12T13:23:58.411Z,49.60
2019-03-12T13:26:30.427Z,51.10
2019-03-12T13:29:02.503Z,49.40
2019-03-12T13:31:34.530Z,52.40
2019-03-12T13:34:06.909Z,51.20
2019-03-12T13:36:39.003Z,52.30
2019-03-12T13:39:11.274Z,51.20
2019-03-12T13:41:44.657Z,52.70
2019-03-12T13:44:16.949Z,52.10
2019-03-12T13:46:48.994Z,53.30
2019-03-12T13:49:21.086Z,54.60
2019-03-12T13:51:54.181Z,55.10
2019-03-12T13:54:27.537Z,54.00
2019-03-12T13:57:01.387Z,55.10
2019-03-12T13:59:44.117Z,54.40
2019-03-12T14:02:27.285Z,53.80
2019-03-12T14:05:01.032Z,57.00
2019-03-12T14:07:32.857Z,55.90
2019-03-12T14:10:06.902Z,56.70
2019-03-12T14:12:38.858Z,56.20
2019-03-12T14:15:14.332Z,57.70
2019-03-12T14:17:46.723Z,57.80
2019-03-12T14:21:02.036Z,57.10
2019-03-12T14:23:38.364Z,57.40
2019-03-12T14:26:10.981Z,58.50
2019-03-12T14:28:43.316Z,58.60
2019-03-12T14:31:15.987Z,59.10
2019-03-12T14:33:48.017Z,58.50
2019-03-12T14:36:20.408Z,58.20
2019-03-12T14:38:53.085Z,58.50
2019-03-12T14:41:27.204Z,58.90
2019-03-12T14:43:59.006Z,60.00
2019-03-12T14:46:30.928Z,59.20
2019-03-12T14:49:05.618Z,59.00
2019-03-12T14:52:17.400Z,58.90
2019-03-12T14:54:49.393Z,60.10
2019-03-12T14:57:21.502Z,59.80
2019-03-12T14:59:53.614Z,59.90
2019-03-12T15:02:25.785Z,59.90
2019-03-12T15:06:04.510Z,60.10
2019-03-12T15:08:40.202Z,59.90
2019-03-12T15:11:12.281Z,60.90
2019-03-12T15:13:44.285Z,59.80
2019-03-12T15:16:17.881Z,61.70
2019-03-12T15:18:52.048Z,62.10
2019-03-12T15:21:23.981Z,60.90
2019-03-12T15:23:56.346Z,62.10
2019-03-12T15:26:31.357Z,60.50
2019-03-12T15:29:03.494Z,61.70
2019-03-12T15:31:37.770Z,62.10
2019-03-12T15:34:09.765Z,60.50
2019-03-12T15:36:45.246Z,59.50
2019-03-12T15:39:16.166Z,59.30
2019-03-12T15:41:48.196Z,61.30
2019-03-12T15:44:20.261Z,61.50
2019-03-12T15:46:52.334Z,59.50
2019-03-12T15:49:25.506Z,59.00
2019-03-12T15:51:57.700Z,59.10
2019-03-12T15:54:29.919Z,58.30
2019-03-12T15:57:02.308Z,58.60
2019-03-12T15:59:34.507Z,56.30
2019-03-12T16:02:20.882Z,57.10
2019-03-12T16:04:56.732Z,57.10
2019-03-12T16:07:28.815Z,57.20
2019-03-12T16:10:01.584Z,56.70
2019-03-12T16:12:34.358Z,56.80
2019-03-12T16:15:07.783Z,56.30
2019-03-12T16:17:39.818Z,56.80
2019-03-12T16:20:12.807Z,56.90
2019-03-12T16:22:44.898Z,56.50
2019-03-12T16:25:17.114Z,56.40
2019-03-12T16:27:49.369Z,55.90
2019-03-12T16:30:21.477Z,56.50
2019-03-12T16:32:53.833Z,57.20
2019-03-12T16:35:42.316Z,55.60
2019-03-12T16:38:09.543Z,57.60
2019-03-12T16:40:43.357Z,56.40
2019-03-12T16:43:15.554Z,58.60
2019-03-12T16:45:47.571Z,57.10
2019-03-12T16:48:19.737Z,58.60
2019-03-12T16:50:51.912Z,56.90
2019-03-12T16:53:23.943Z,57.20
2019-03-12T16:55:56.381Z,57.40
2019-03-12T16:58:28.464Z,57.90
2019-03-12T17:01:01.081Z,57.60
2019-03-12T17:03:38.866Z,57.00
2019-03-12T17:06:11.098Z,57.50
2019-03-12T17:08:43.294Z,58.30
2019-03-12T17:11:15.237Z,57.40
2019-03-12T17:13:47.283Z,56.90
2019-03-12T17:16:19.299Z,58.10
2019-03-12T17:18:54.392Z,58.30
2019-03-12T17:21:28.577Z,57.70
2019-03-12T17:24:00.705Z,58.20
2019-03-12T17:26:37.526Z,58.00
2019-03-12T17:29:15.663Z,58.20
2019-03-12T17:31:48.911Z,58.30
2019-03-12T17:34:20.920Z,58.70
2019-03-12T17:36:53.046Z,59.30
2019-03-12T17:39:25.460Z,59.80
2019-03-12T17:42:02.152Z,60.70
2019-03-12T17:44:35.336Z,61.00
2019-03-12T17:47:11.661Z,60.30
2019-03-12T17:49:44.537Z,60.90
2019-03-12T17:52:19.462Z,60.90
2019-03-12T17:54:52.672Z,60.60
2019-03-12T17:57:24.594Z,61.50
2019-03-12T17:59:56.599Z,61.20
2019-03-12T18:02:41.623Z,61.00
2019-03-12T18:05:02.489Z,61.40
2019-03-12T18:07:34.583Z,62.10
2019-03-12T18:10:07.715Z,63.10
2019-03-12T18:12:39.779Z,62.40
2019-03-12T18:15:14.592Z,62.70
2019-03-12T18:17:47.070Z,63.30
2019-03-12T18:23:12.609Z,62.30
2019-03-12T18:25:44.083Z,62.80
2019-03-12T18:28:24.618Z,63.30
2019-03-12T18:30:58.706Z,62.70
2019-03-12T18:33:32.777Z,62.90
2019-03-12T18:36:05.205Z,62.60
2019-03-12T18:38:37.461Z,62.60
2019-03-12T18:41:30.008Z,62.30
2019-03-12T18:44:03.184Z,61.50
2019-03-12T18:46:55.965Z,62.40
2019-03-12T18:49:35.763Z,62.20
2019-03-12T18:52:26.328Z,61.70
2019-03-12T18:55:16.122Z,62.50
2019-03-12T18:57:52.176Z,62.70
2019-03-12T19:00:26.072Z,62.40
2019-03-12T19:03:00.249Z,61.60
2019-03-12T19:05:44.277Z,61.60
2019-03-12T19:08:21.062Z,62.10
2019-03-12T19:11:00.334Z,61.60
2019-03-12T19:13:35.670Z,60.70
2019-03-12T19:16:16.323Z,60.20
2019-03-12T19:18:50.094Z,62.90
2019-03-12T19:21:28.053Z,60.20
2019-03-12T19:24:12.355Z,59.80
2019-03-12T19:26:50.696Z,61.00
2019-03-12T19:29:24.159Z,61.10
2019-03-12T19:32:13.770Z,60.10
2019-03-12T19:34:46.176Z,61.20
2019-03-12T19:37:18.331Z,60.60
2019-03-12T19:39:50.490Z,60.70
2019-03-12T19:42:22.698Z,62.00
2019-03-12T19:44:54.944Z,59.90
2019-03-12T19:47:27.129Z,61.20
2019-03-12T19:49:59.363Z,60.00
2019-03-12T19:52:31.559Z,60.50
2019-03-12T19:55:03.691Z,60.10
2019-03-12T19:57:35.932Z,59.30
2019-03-12T20:00:10.989Z,59.60
2019-03-12T20:02:43.364Z,59.80
2019-03-12T20:05:15.568Z,59.60
2019-03-12T20:07:47.719Z,61.30
2019-03-12T20:11:26.007Z,61.20
2019-03-12T20:15:05.873Z,59.90
2019-03-12T20:18:40.260Z,59.60
2019-03-12T20:22:10.548Z,59.40
2019-03-12T20:25:57.695Z,59.40
2019-03-12T20:29:46.345Z,59.20
2019-03-12T20:33:18.738Z,59.30
2019-03-12T20:36:53.631Z,58.90
2019-03-12T20:40:42.412Z,59.40
2019-03-12T20:44:09.234Z,60.30
2019-03-12T20:47:52.657Z,59.10
2019-03-12T20:51:39.965Z,59.80
2019-03-12T20:55:22.773Z,59.90
2019-03-12T20:58:46.147Z,60.20
2019-03-12T21:02:14.953Z,60.20
2019-03-12T21:05:52.067Z,59.60
2019-03-12T21:09:30.360Z,59.40
2019-03-12T21:13:16.296Z,59.90
2019-03-12T21:16:57.592Z,60.60
2019-03-12T21:20:22.971Z,59.20
2019-03-12T21:23:11.486Z,59.30
2019-03-12T21:26:40.423Z,58.90
2019-03-12T21:29:53.013Z,59.00
2019-03-12T21:32:25.731Z,59.00
2019-03-12T21:34:57.726Z,59.00
2019-03-12T21:37:29.919Z,59.20
2019-03-12T21:40:02.331Z,59.20
2019-03-12T21:42:35.484Z,58.60
2019-03-12T21:45:08.719Z,58.70
2019-03-12T21:47:41.680Z,58.70
2019-03-12T21:50:13.981Z,59.30
2019-03-12T21:52:46.216Z,59.00
2019-03-12T21:55:18.204Z,58.80
2019-03-12T21:57:51.864Z,58.70
2019-03-12T22:00:24.247Z,58.60
2019-03-12T22:02:56.797Z,58.70
2019-03-12T22:05:28.945Z,59.60
2019-03-12T22:08:01.124Z,59.30
2019-03-12T22:10:33.330Z,59.30
2019-03-12T22:13:05.413Z,59.00
2019-03-12T22:15:37.630Z,60.00
2019-03-12T22:18:09.696Z,59.90
2019-03-12T22:20:41.856Z,60.50
2019-03-12T22:23:26.164Z,61.50
2019-03-12T22:25:58.239Z,61.50
2019-03-12T22:28:30.282Z,61.30
2019-03-12T22:31:02.410Z,60.60
2019-03-12T22:33:34.525Z,59.80
2019-03-12T22:36:06.705Z,59.40
2019-03-12T22:38:38.821Z,60.50
2019-03-12T22:41:12.220Z,60.40
2019-03-12T22:43:44.372Z,60.70
2019-03-12T22:46:16.540Z,59.80
2019-03-12T22:48:48.838Z,60.60
2019-03-12T22:51:20.920Z,59.50
2019-03-12T22:53:52.971Z,60.20
2019-03-12T22:56:24.935Z,59.90
2019-03-12T22:58:57.068Z,59.60
2019-03-12T23:01:46.455Z,60.10
2019-03-12T23:04:36.303Z,61.40
2019-03-12T23:07:26.156Z,61.10
2019-03-12T23:09:59.951Z,60.00
2019-03-12T23:12:33.670Z,60.10
2019-03-12T23:15:08.106Z,60.90
2019-03-12T23:17:42.288Z,60.90
2019-03-12T23:20:14.762Z,61.30
2019-03-12T23:22:47.371Z,61.70
2019-03-12T23:25:19.694Z,62.00
2019-03-12T23:27:53.347Z,65.00
2019-03-12T23:30:28.463Z,68.30
2019-03-12T23:32:59.574Z,69.80
2019-03-12T23:35:31.669Z,70.50
2019-03-12T23:38:04.025Z,74.30
2019-03-12T23:40:36.143Z,76.00
2019-03-12T23:43:08.658Z,77.90
2019-03-12T23:45:40.839Z,79.20
2019-03-12T23:48:13.003Z,81.70
2019-03-12T23:50:45.024Z,83.90
2019-03-12T23:53:17.511Z,89.70
2019-03-12T23:55:49.755Z,91.30
2019-03-12T23:58:21.842Z,91.70
